Impacts TAF Board
For situational awareness. Not to be used for flight planning purposes.
IDs:

KEWR - Newark Intl, NJ, US

Issued at 1454 UTC 19 Apr 2019
Updated at 1455 UTC 19 Apr 2019
Potential Impact None Slight Moderate High
Time1451Z 19/15Z 19/16Z 19/17Z 19/18Z 19/19Z 19/20Z 19/21Z 19/22Z 19/23Z 20/00Z 20/01Z 20/02Z 20/03Z>>
Type OBS PRVL
  [TEMP]  
PRVL
  [TEMP]  
PRVL
  [TEMP]  
PRVL PRVL PRVL
  [TEMP]  
PRVL
  [TEMP]  
PRVL PRVL PRVL PRVL PRVL PRVL
VIS 10 >6
  [6]  
>6
  [6]  
>6
  [6]  
>6 >6 6 6 3 3 3 3 3 3
CIG 24 35
  [20]  
35
  [20]  
35
  [20]  
35 35 15
  [10]  
15
  [10]  
10 10 10 10 10 10
Cover BKN BKN
  [BKN]  
BKN
  [BKN]  
BKN
  [BKN]  
BKN BKN OVC
  [OVC]  
OVC
  [OVC]  
OVC OVC OVC OVC OVC OVC
FltCat MVFR VFR
  [MVFR]  
VFR
  [MVFR]  
VFR
  [MVFR]  
VFR VFR MVFR
  [MVFR]  
MVFR
  [MVFR]  
MVFR MVFR MVFR MVFR MVFR MVFR
WX -- --
  [BR]  
--
  [BR]  
--
  [BR]  
-- -- BR
  [-SHRA]  
BR
  [-SHRA]  
-SHRA BR -SHRA BR -SHRA BR -SHRA BR -SHRA BR -SHRA BR
WDir 190 190
[190]
190
[190]
190
[190]
190 190 180
[180]
180
[180]
180 180 180 180 180 180
WSpd 18 19
  [19]  
19
  [19]  
19
  [19]  
19 19 21
  [21]  
21
  [21]  
13 13 13 13 13 13
WGst 27 27
  [27]  
27
  [27]  
27
  [27]  
27 27 27
  [27]  
27
  [27]  
22 22 22 22 22 22
Raw TAF
KEWR 191454Z 1915/2018 19019G27KT P6SM BKN035
  TEMPO 1915/1918 6SM BR BKN020
  FM192000 18021G27KT 6SM BR OVC015 WS020/20050KT
  TEMPO 1920/1922 -SHRA OVC010
  FM192200 18013G22KT 3SM -SHRA BR OVC010 WS020/19055KT
  FM200500 18013G22KT 2SM +SHRA BR OVC010 WS020/19055KT
  FM201400 17013G20KT 4SM SHRA BR OVC020


Raw METAR
KEWR 191451Z 19018G27KT 10SM BKN024 BKN030 BKN043 22/16 A2981 RMK AO2 PK WND 20027/1444 SLP094 T02170161 50005
KEWR 191437Z 19013G21KT 10SM BKN024 BKN030 BKN043 22/16 A2982 RMK AO2 T02220161
KEWR 191351Z 19018G25KT 10SM SCT023 BKN050 BKN080 22/16 A2981 RMK AO2 PK WND 20028/1318 SLP094 SCT V BKN T02170161
KEWR 191325Z 20018G28KT 10SM SCT023 BKN034 BKN075 21/16 A2981 RMK AO2 PK WND 20028/1318 SCT V BKN T02110156
KEWR 191251Z 20013G22KT 10SM BKN022 OVC220 20/16 A2981 RMK AO2 SLP093 T02000156
KEWR 191229Z 19014G21KT 10SM FEW021 BKN025 BKN220 20/15 A2980 RMK AO2 T02000150
KEWR 191151Z 19010KT 10SM SCT027 BKN130 BKN220 19/15 A2980 RMK AO2 SLP089 T01890150 10189 20172 56006

METAR Board
Radar Display
Forecast Discussion
For situational awareness. Not to be used for flight planning purposes.